createdAt,value
2019-06-01T00:02:40.988Z,1.4
2019-06-01T00:12:50.223Z,1.8
2019-06-01T00:23:05.086Z,1.4
2019-06-01T00:33:20.008Z,1.1
2019-06-01T00:43:28.409Z,1.3
2019-06-01T00:53:39.215Z,1
2019-06-01T01:03:52.504Z,1.3
2019-06-01T01:14:02.353Z,1.7
2019-06-01T01:24:16.923Z,1.5
2019-06-01T01:34:28.155Z,1.6
2019-06-01T01:44:37.379Z,1.2
2019-06-01T01:54:50.780Z,1.6
2019-06-01T02:05:03.262Z,1.1
2019-06-01T02:15:16.657Z,1.4
2019-06-01T02:25:28.874Z,1.3
2019-06-01T02:35:38.777Z,1.2
2019-06-01T02:45:50.308Z,1.6
2019-06-01T02:56:02.378Z,1.5
2019-06-01T03:06:15.525Z,2.4
2019-06-01T03:16:28.897Z,1.8
2019-06-01T03:26:41.416Z,1.7
2019-06-01T03:36:51.121Z,1.3
2019-06-01T03:47:01.737Z,1.6
2019-06-01T03:57:13.890Z,2.1
2019-06-01T04:07:26.214Z,1.8
2019-06-01T04:17:38.839Z,2.1
2019-06-01T04:27:48.272Z,1.3
2019-06-01T04:37:58.884Z,1.9
2019-06-01T04:48:12.294Z,1.5
2019-06-01T04:58:22.547Z,1.6
2019-06-01T05:08:37.831Z,1.4
2019-06-01T05:18:51.952Z,1
2019-06-01T05:28:55.807Z,1.4
2019-06-01T05:39:08.443Z,1
2019-06-01T05:49:16.952Z,1.5
2019-06-01T05:59:32.343Z,1.4
2019-06-01T06:09:45.917Z,1.1
2019-06-01T06:19:56.480Z,1
2019-06-01T06:30:07.697Z,0.7
2019-06-01T06:40:20.297Z,1.8
2019-06-01T06:50:32.362Z,1.3
2019-06-01T07:00:44.926Z,1
2019-06-01T07:10:56.948Z,1.2
2019-06-01T07:21:06.373Z,1.5
2019-06-01T07:31:24.330Z,1
2019-06-01T07:41:35.062Z,1.2
2019-06-01T07:51:41.349Z,1.5
2019-06-01T08:01:57.608Z,1.2
2019-06-01T08:12:07.792Z,0.6
2019-06-01T08:22:15.808Z,0.3
2019-06-01T08:32:33.993Z,0.1
2019-06-01T08:42:40.934Z,1.1
2019-06-01T08:52:51.892Z,1.1
2019-06-01T09:03:03.519Z,1
2019-06-01T09:13:11.431Z,2.8
2019-06-01T09:23:27.683Z,1
2019-06-01T09:33:32.362Z,1.2
2019-06-01T09:43:47.108Z,1.4
2019-06-01T09:54:01.541Z,4.5
2019-06-01T10:04:11.312Z,1.2
2019-06-01T10:14:19.045Z,1
2019-06-01T10:24:34.781Z,0.2
2019-06-01T10:34:41.967Z,1.3
2019-06-01T10:44:52.955Z,1.4
2019-06-01T10:55:05.841Z,1.2
2019-06-01T11:05:16.161Z,1.2
2019-06-01T11:15:25.823Z,1.8
2019-06-01T11:25:36.050Z,1.2
2019-06-01T11:35:47.861Z,0.5
2019-06-01T11:45:59.161Z,0.8
2019-06-01T11:56:09.902Z,1.1
2019-06-01T12:06:25.126Z,1.4
2019-06-01T12:16:32.539Z,1.9
2019-06-01T12:26:45.640Z,1.1
2019-06-01T12:36:54.404Z,1.3
2019-06-01T12:47:12.432Z,1
2019-06-01T12:57:24.828Z,0.1
2019-06-01T13:07:29.610Z,1.2
2019-06-01T13:17:45.900Z,1.4
2019-06-01T13:27:55.580Z,1.2
2019-06-01T13:38:12.710Z,0.6
2019-06-01T13:48:16.337Z,1.6
2019-06-01T13:58:30.497Z,1.9
2019-06-01T14:08:42.023Z,2.1
2019-06-01T14:18:54.190Z,1.2
2019-06-01T14:29:07.046Z,1.8
2019-06-01T14:39:31.564Z,1.4
2019-06-01T14:49:30.417Z,1.4
2019-06-01T14:59:40.209Z,1.3
2019-06-01T15:10:01.059Z,1.1
2019-06-01T15:20:02.853Z,1.6
2019-06-01T15:30:15.408Z,1.4
2019-06-01T15:40:27.317Z,1.4
2019-06-01T15:50:36.188Z,2.1
2019-06-01T16:00:47.684Z,1
2019-06-01T16:11:06.023Z,1.5
2019-06-01T16:21:08.762Z,2.1
2019-06-01T16:31:22.412Z,1.5
2019-06-01T16:41:34.044Z,1.8
2019-06-01T16:51:44.391Z,1.8
2019-06-01T17:01:56.767Z,1.3
2019-06-01T17:12:08.006Z,2
2019-06-01T17:22:21.319Z,1.6
2019-06-01T17:32:56.072Z,1.4
2019-06-01T17:35:36.546Z,2.2
2019-06-01T17:45:40.233Z,2.4
2019-06-01T17:55:50.028Z,1.7
2019-06-01T18:06:01.929Z,2.1
2019-06-01T18:16:13.315Z,1
2019-06-01T18:26:25.387Z,1.3
2019-06-01T18:36:38.039Z,2.3
2019-06-01T18:46:47.131Z,1.6
2019-06-01T18:57:19.130Z,7.8
2019-06-01T18:59:56.701Z,3.3
2019-06-01T19:10:05.408Z,7.6
2019-06-01T19:20:17.990Z,15.6
2019-06-01T19:30:29.807Z,9.2
2019-06-01T19:40:42.038Z,7.5
2019-06-01T19:50:52.323Z,4
2019-06-01T20:01:01.907Z,2.5
2019-06-01T20:11:13.275Z,6.2
2019-06-01T20:21:22.418Z,5.7
2019-06-01T20:31:37.565Z,3.9
2019-06-01T20:41:53.384Z,3.4
2019-06-01T20:52:00.537Z,3.1
2019-06-01T21:02:11.092Z,4.6
2019-06-01T21:12:45.823Z,2.8
2019-06-01T21:15:21.482Z,1.8
2019-06-01T21:25:31.921Z,2.5
2019-06-01T21:35:45.962Z,2.1
2019-06-01T21:45:56.398Z,2.6
2019-06-01T21:56:04.957Z,1.9
2019-06-01T22:06:19.192Z,2.1
2019-06-01T22:16:28.439Z,2.8
2019-06-01T22:26:42.795Z,2.6
2019-06-01T22:36:56.322Z,2.2
2019-06-01T22:47:05.403Z,2.3
2019-06-01T22:57:16.289Z,2.6
2019-06-01T23:07:29.166Z,1.8
2019-06-01T23:17:39.328Z,2.6
2019-06-01T23:27:54.741Z,2
2019-06-01T23:38:05.619Z,2.2
2019-06-01T23:48:14.548Z,2.7
2019-06-01T23:58:26.583Z,1.5
